createdAt,value
2022-12-24T00:01:21.878Z,97484.66
2022-12-24T00:03:48.462Z,97499.59
2022-12-24T00:06:24.747Z,97501.38
2022-12-24T00:08:54.799Z,97491.75
2022-12-24T00:11:24.055Z,97492.59
2022-12-24T00:13:50.642Z,97491.69
2022-12-24T00:16:17.324Z,97494.34
2022-12-24T00:18:46.581Z,97499.63
2022-12-24T00:21:13.844Z,97502.31
2022-12-24T00:23:40.924Z,97509.38
2022-12-24T00:26:08.499Z,97519.09
2022-12-24T00:28:35.151Z,97520.94
2022-12-24T00:31:10.617Z,97522.66
2022-12-24T00:33:37.386Z,97538.31
2022-12-24T00:36:04.141Z,97532.19
2022-12-24T00:38:32.294Z,97527.78
2022-12-24T00:41:00.911Z,97527.78
2022-12-24T00:43:28.973Z,97518.06
2022-12-24T00:45:56.318Z,97531.28
2022-12-24T00:48:23.113Z,97529.50
2022-12-24T00:50:50.949Z,97528.53
2022-12-24T00:53:18.684Z,97528.56
2022-12-24T00:55:45.161Z,97522.44
2022-12-24T00:58:15.019Z,97522.34
2022-12-24T01:00:41.552Z,97525.94
2022-12-24T01:03:08.327Z,97537.44
2022-12-24T01:05:34.996Z,97548.00
2022-12-24T01:08:01.542Z,97548.00
2022-12-24T01:10:35.852Z,97537.47
2022-12-24T01:13:03.331Z,97549.72
2022-12-24T01:15:29.973Z,97560.22
2022-12-24T01:17:56.562Z,97564.56
2022-12-24T01:20:22.996Z,97572.53
2022-12-24T01:22:49.522Z,97582.25
2022-12-24T01:25:16.057Z,97581.38
2022-12-24T01:27:42.532Z,97591.94
2022-12-24T01:30:13.172Z,97587.50
2022-12-24T01:32:42.907Z,97598.81
2022-12-24T01:35:13.318Z,97596.97
2022-12-24T01:37:39.864Z,97605.84
2022-12-24T01:40:32.677Z,97599.72
2022-12-24T01:43:18.975Z,97599.75
2022-12-24T01:46:01.683Z,97613.84
2022-12-24T01:48:44.135Z,97612.94
2022-12-24T01:51:19.705Z,97598.81
2022-12-24T01:53:52.135Z,97609.41
2022-12-24T01:56:20.978Z,97601.50
2022-12-24T01:58:57.233Z,97612.97
2022-12-24T02:01:24.520Z,97618.25
2022-12-24T02:03:51.386Z,97625.16
2022-12-24T02:06:20.719Z,97621.63
2022-12-24T02:08:47.501Z,97618.06
2022-12-24T02:11:22.119Z,97630.38
2022-12-24T02:13:54.072Z,97628.69
2022-12-24T02:16:34.808Z,97641.84
2022-12-24T02:20:01.206Z,97652.44
2022-12-24T02:22:36.549Z,97658.69
2022-12-24T02:25:15.051Z,97662.28
2022-12-24T02:27:45.105Z,97664.91
2022-12-24T02:30:16.990Z,97671.09
2022-12-24T02:33:05.462Z,97661.47
2022-12-24T02:35:58.292Z,97662.34
2022-12-24T02:38:39.684Z,97669.34
2022-12-24T02:41:22.513Z,97682.56
2022-12-24T02:43:51.784Z,97668.44
2022-12-24T02:46:24.217Z,97681.59
2022-12-24T02:48:51.139Z,97679.78
2022-12-24T02:51:23.402Z,97682.56
2022-12-24T02:53:50.038Z,97691.38
2022-12-24T02:56:25.623Z,97685.28
2022-12-24T02:59:17.090Z,97693.25
2022-12-24T03:02:04.788Z,97697.75
2022-12-24T03:04:57.551Z,97702.94
2022-12-24T03:07:36.954Z,97695.09
2022-12-24T03:10:24.337Z,97704.63
2022-12-24T03:12:55.935Z,97714.28
2022-12-24T03:15:25.781Z,97708.25
2022-12-24T03:17:56.329Z,97718.84
2022-12-24T03:20:30.079Z,97721.47
2022-12-24T03:22:57.265Z,97720.56
2022-12-24T03:25:26.173Z,97724.94
2022-12-24T03:27:53.618Z,97732.81
2022-12-24T03:30:20.545Z,97733.81
2022-12-24T03:32:47.236Z,97740.94
2022-12-24T03:35:14.323Z,97749.84
2022-12-24T03:37:41.081Z,97754.28
2022-12-24T03:40:08.515Z,97762.19
2022-12-24T03:42:35.111Z,97769.25
2022-12-24T03:45:01.551Z,97770.09
2022-12-24T03:47:28.118Z,97783.31
2022-12-24T03:49:54.638Z,97785.94
2022-12-24T03:52:21.148Z,97779.75
2022-12-24T03:54:47.694Z,97773.47
2022-12-24T03:57:14.180Z,97798.94
2022-12-24T03:59:40.815Z,97795.47
2022-12-24T04:02:07.447Z,97799.81
2022-12-24T04:04:36.773Z,97791.88
2022-12-24T04:07:04.797Z,97801.53
2022-12-24T04:09:31.313Z,97810.25
2022-12-24T04:11:57.812Z,97805.91
2022-12-24T04:14:24.393Z,97804.19
2022-12-24T04:16:50.896Z,97807.78
2022-12-24T04:19:17.479Z,97808.72
2022-12-24T04:21:43.919Z,97811.38
2022-12-24T04:24:10.405Z,97821.06
2022-12-24T04:26:36.861Z,97826.41
2022-12-24T04:29:03.395Z,97821.16
2022-12-24T04:31:30.028Z,97827.34
2022-12-24T04:33:56.518Z,97823.00
2022-12-24T04:36:23.062Z,97824.78
2022-12-24T04:38:49.902Z,97837.97
2022-12-24T04:41:23.867Z,97825.59
2022-12-24T04:43:52.601Z,97828.25
2022-12-24T04:46:22.025Z,97839.72
2022-12-24T04:48:50.751Z,97832.63
2022-12-24T04:51:18.529Z,97841.41
2022-12-24T04:53:45.011Z,97847.50
2022-12-24T04:56:17.160Z,97850.16
2022-12-24T04:58:44.146Z,97841.34
2022-12-24T05:01:17.933Z,97837.91
2022-12-24T05:03:44.630Z,97833.56
2022-12-24T05:06:14.654Z,97844.94
2022-12-24T05:08:41.891Z,97844.00
2022-12-24T05:11:08.406Z,97857.22
2022-12-24T05:13:44.070Z,97852.88
2022-12-24T05:16:13.285Z,97866.09
2022-12-24T05:18:40.185Z,97865.16
2022-12-24T05:21:25.545Z,97877.38
2022-12-24T05:24:11.569Z,97880.06
2022-12-24T05:26:58.797Z,97887.09
2022-12-24T05:29:25.275Z,97882.69
2022-12-24T05:31:51.727Z,97892.28
2022-12-24T05:34:18.243Z,97899.34
2022-12-24T05:36:45.400Z,97915.22
2022-12-24T05:39:16.693Z,97909.97
2022-12-24T05:41:44.546Z,97918.75
2022-12-24T05:44:11.216Z,97920.50
2022-12-24T05:46:37.953Z,97917.94
2022-12-24T05:49:04.523Z,97929.41
2022-12-24T05:51:31.008Z,97917.16
2022-12-24T05:53:57.456Z,97926.81
2022-12-24T05:56:24.761Z,97934.72
2022-12-24T05:58:52.447Z,97920.69
2022-12-24T06:01:20.156Z,97942.66
2022-12-24T06:03:46.981Z,97940.91
2022-12-24T06:06:23.515Z,97944.44
2022-12-24T06:08:51.182Z,97933.03
2022-12-24T06:11:20.519Z,97953.22
2022-12-24T06:13:47.313Z,97946.16
2022-12-24T06:16:18.870Z,97941.75
2022-12-24T06:18:46.001Z,97939.97
2022-12-24T06:21:13.120Z,97962.81
2022-12-24T06:23:41.945Z,97957.63
2022-12-24T06:26:11.299Z,97962.91
2022-12-24T06:28:38.448Z,97962.03
2022-12-24T06:31:07.543Z,97963.78
2022-12-24T06:33:34.967Z,97957.59
2022-12-24T06:36:01.905Z,97983.09
2022-12-24T06:38:34.363Z,97980.47
2022-12-24T06:41:08.636Z,97976.06
2022-12-24T06:43:35.686Z,97973.47
2022-12-24T06:46:03.930Z,97975.28
2022-12-24T06:48:30.852Z,97974.44
2022-12-24T06:50:57.321Z,97982.38
2022-12-24T06:53:23.875Z,97983.19
2022-12-24T06:55:50.399Z,97993.75
2022-12-24T06:58:16.881Z,98006.94
2022-12-24T07:00:43.319Z,98004.31
2022-12-24T07:03:09.867Z,98002.63
2022-12-24T07:05:36.300Z,98013.16
2022-12-24T07:08:02.793Z,98000.88
2022-12-24T07:10:29.304Z,98012.28
2022-12-24T07:12:55.861Z,98013.16
2022-12-24T07:15:22.386Z,98019.31
2022-12-24T07:17:48.963Z,98021.06
2022-12-24T07:20:15.647Z,98027.22
2022-12-24T07:22:45.179Z,98036.03
2022-12-24T07:25:11.933Z,98038.72
2022-12-24T07:27:39.292Z,98030.78
2022-12-24T07:30:06.964Z,98041.34
2022-12-24T07:32:33.540Z,98037.84
2022-12-24T07:35:00.123Z,98052.75
2022-12-24T07:37:26.698Z,98048.41
2022-12-24T07:39:53.182Z,98062.41
2022-12-24T07:42:22.630Z,98065.94
2022-12-24T07:44:51.721Z,98069.47
2022-12-24T07:47:18.217Z,98076.53
2022-12-24T07:49:44.775Z,98077.38
2022-12-24T07:52:11.484Z,98085.31
2022-12-24T07:54:37.967Z,98091.47
2022-12-24T07:57:04.473Z,98094.13
2022-12-24T07:59:30.988Z,98105.53
2022-12-24T08:01:57.610Z,98101.13
2022-12-24T08:04:24.534Z,98105.53
2022-12-24T08:06:51.158Z,98117.84
2022-12-24T08:09:17.624Z,98109.84
2022-12-24T08:11:51.361Z,98130.94
2022-12-24T08:14:18.381Z,98132.66
2022-12-24T08:16:44.937Z,98137.03
2022-12-24T08:19:11.486Z,98141.44
2022-12-24T08:21:37.946Z,98131.75
2022-12-24T08:24:04.942Z,98148.44
2022-12-24T08:26:31.487Z,98154.59
2022-12-24T08:29:04.393Z,98159.81
2022-12-24T08:31:36.341Z,98151.06
2022-12-24T08:34:08.981Z,98157.19
2022-12-24T08:36:38.528Z,98151.06
2022-12-24T08:39:05.778Z,98144.84
2022-12-24T08:41:32.761Z,98144.88
2022-12-24T08:44:02.710Z,98151.91
2022-12-24T08:46:32.800Z,98152.78
2022-12-24T08:48:59.258Z,98169.44
2022-12-24T08:51:25.815Z,98172.09
2022-12-24T08:53:52.350Z,98166.84
2022-12-24T08:56:23.816Z,98165.06
2022-12-24T08:58:50.346Z,98175.59
2022-12-24T09:01:23.561Z,98186.16
2022-12-24T09:03:50.237Z,98187.88
2022-12-24T09:06:20.171Z,98191.38
2022-12-24T09:08:46.666Z,98185.22
2022-12-24T09:11:18.455Z,98193.16
2022-12-24T09:13:45.020Z,98200.22
2022-12-24T09:16:12.762Z,98196.69
2022-12-24T09:18:39.443Z,98194.97
2022-12-24T09:21:09.916Z,98202.91
2022-12-24T09:23:44.308Z,98209.94
2022-12-24T09:26:15.167Z,98217.84
2022-12-24T09:28:41.809Z,98225.78
2022-12-24T09:31:10.460Z,98236.38
2022-12-24T09:33:38.790Z,98239.91
2022-12-24T09:36:06.198Z,98246.97
2022-12-24T09:38:33.512Z,98243.44
2022-12-24T09:41:07.094Z,98254.00
2022-12-24T09:43:37.626Z,98251.38
2022-12-24T09:46:21.127Z,98261.00
2022-12-24T09:49:02.237Z,98264.53
2022-12-24T09:51:36.988Z,98260.13
2022-12-24T09:54:14.383Z,98255.72
2022-12-24T09:56:45.531Z,98253.97
2022-12-24T09:59:20.308Z,98260.13
2022-12-24T10:01:47.828Z,98258.38
2022-12-24T10:04:16.912Z,98272.44
2022-12-24T10:07:10.514Z,98275.06
2022-12-24T10:09:52.112Z,98283.84
2022-12-24T10:12:25.331Z,98275.06
2022-12-24T10:15:19.404Z,98296.16
2022-12-24T10:18:13.701Z,98290.03
2022-12-24T10:20:49.683Z,98286.53
2022-12-24T10:23:38.307Z,98304.09
2022-12-24T10:26:15.677Z,98301.47
2022-12-24T10:28:56.804Z,98304.13
2022-12-24T10:31:31.866Z,98299.75
2022-12-24T10:34:08.281Z,98310.28
2022-12-24T10:36:37.536Z,98301.47
2022-12-24T10:39:04.109Z,98303.25
2022-12-24T10:41:31.683Z,98318.19
2022-12-24T10:44:00.017Z,98326.97
2022-12-24T10:46:38.153Z,98322.59
2022-12-24T10:49:32.528Z,98324.34
2022-12-24T10:52:35.548Z,98322.56
2022-12-24T10:55:07.371Z,98321.72
2022-12-24T10:57:34.315Z,98330.50
2022-12-24T11:00:01.412Z,98341.06
2022-12-24T11:02:36.941Z,98339.28
2022-12-24T11:05:07.502Z,98349.84
2022-12-24T11:07:37.482Z,98345.44
2022-12-24T11:10:08.146Z,98341.94
2022-12-24T11:12:38.950Z,98337.53
2022-12-24T11:15:07.637Z,98345.47
2022-12-24T11:17:34.454Z,98338.41
2022-12-24T11:20:03.377Z,98329.59
2022-12-24T11:22:32.537Z,98338.38
2022-12-24T11:25:08.166Z,98331.41
2022-12-24T11:27:49.712Z,98339.28
2022-12-24T11:30:16.401Z,98345.44
2022-12-24T11:32:44.778Z,98347.19
2022-12-24T11:35:18.777Z,98349.84
2022-12-24T11:37:45.256Z,98346.31
2022-12-24T11:40:24.119Z,98339.28
2022-12-24T11:42:53.822Z,98343.66
2022-12-24T11:45:27.497Z,98344.53
2022-12-24T11:47:54.532Z,98348.03
2022-12-24T11:50:27.526Z,98362.09
2022-12-24T11:53:04.356Z,98353.31
2022-12-24T11:55:41.796Z,98345.41
2022-12-24T11:58:20.236Z,98347.22
2022-12-24T12:00:49.290Z,98336.66
2022-12-24T12:03:35.799Z,98331.41
2022-12-24T12:06:19.597Z,98331.38
2022-12-24T12:08:47.632Z,98330.53
2022-12-24T12:11:15.147Z,98327.84
2022-12-24T12:13:45.983Z,98338.38
2022-12-24T12:16:23.250Z,98333.09
2022-12-24T12:19:05.636Z,98338.38
2022-12-24T12:21:43.203Z,98330.44
2022-12-24T12:24:19.530Z,98340.13
2022-12-24T12:26:49.235Z,98348.00
2022-12-24T12:29:15.623Z,98344.50
2022-12-24T12:31:47.860Z,98355.03
2022-12-24T12:34:23.758Z,98347.97
2022-12-24T12:37:14.915Z,98350.63
2022-12-24T12:39:42.507Z,98359.38
2022-12-24T12:42:32.893Z,98360.25
2022-12-24T12:45:28.327Z,98364.66
2022-12-24T12:48:10.056Z,98367.25
2022-12-24T12:50:58.499Z,98368.13
2022-12-24T12:53:50.634Z,98364.63
2022-12-24T12:56:37.737Z,98376.06
2022-12-24T12:59:30.251Z,98374.28
2022-12-24T13:02:18.439Z,98374.28
2022-12-24T13:05:22.151Z,98380.47
2022-12-24T13:08:08.899Z,98387.47
2022-12-24T13:10:56.912Z,98392.75
2022-12-24T13:13:44.662Z,98395.41
2022-12-24T13:16:45.409Z,98393.66
2022-12-24T13:19:23.076Z,98398.03
2022-12-24T13:21:53.224Z,98403.31
2022-12-24T13:24:22.702Z,98399.78
2022-12-24T13:27:06.916Z,98405.94
2022-12-24T13:29:33.319Z,98408.59
2022-12-24T13:32:23.052Z,98415.66
2022-12-24T13:34:52.374Z,98409.50
2022-12-24T13:37:23.360Z,98422.69
2022-12-24T13:40:08.467Z,98420.91
2022-12-24T13:43:10.393Z,98423.53
2022-12-24T13:45:36.825Z,98430.59
2022-12-24T13:48:06.305Z,98428.81
2022-12-24T13:50:38.669Z,98428.81
2022-12-24T13:53:18.563Z,98422.69
2022-12-24T13:56:08.353Z,98436.75
2022-12-24T13:58:50.620Z,98450.84
2022-12-24T14:01:21.422Z,98443.78
2022-12-24T14:03:53.553Z,98453.47
2022-12-24T14:06:26.536Z,98441.16
2022-12-24T14:08:57.857Z,98442.91
2022-12-24T14:11:28.311Z,98442.03
2022-12-24T14:14:05.738Z,98441.16
2022-12-24T14:16:43.453Z,98442.03
2022-12-24T14:19:18.595Z,98447.34
2022-12-24T14:22:23.159Z,98448.22
2022-12-24T14:24:58.780Z,98449.97
2022-12-24T14:27:42.926Z,98453.50
2022-12-24T14:30:30.535Z,98452.66
2022-12-24T14:32:57.194Z,98450.00
2022-12-24T14:35:42.003Z,98457.91
2022-12-24T14:38:18.114Z,98471.09
2022-12-24T14:41:09.359Z,98480.78
2022-12-24T14:44:06.853Z,98482.53
2022-12-24T14:46:48.611Z,98479.91
2022-12-24T14:49:38.284Z,98474.59
2022-12-24T14:55:35.294Z,98480.75
2022-12-24T14:58:33.908Z,98493.09
2022-12-24T15:01:03.248Z,98500.13
2022-12-24T15:03:33.081Z,98501.00
2022-12-24T15:06:04.032Z,98517.72
2022-12-24T15:08:40.101Z,98508.03
2022-12-24T15:11:09.276Z,98507.16
2022-12-24T15:13:44.260Z,98516.84
2022-12-24T15:16:13.913Z,98514.19
2022-12-24T15:18:55.105Z,98523.00
2022-12-24T15:21:32.924Z,98523.88
2022-12-24T15:24:01.084Z,98527.41
2022-12-24T15:26:36.697Z,98528.28
2022-12-24T15:29:20.915Z,98537.09
2022-12-24T15:31:53.396Z,98545.88
2022-12-24T15:34:48.279Z,98544.09
2022-12-24T15:37:39.674Z,98537.06
2022-12-24T15:40:22.850Z,98545.88
2022-12-24T15:42:49.644Z,98549.38
2022-12-24T15:45:26.648Z,98561.69
2022-12-24T15:48:00.528Z,98564.31
2022-12-24T15:50:30.105Z,98563.44
2022-12-24T15:53:20.564Z,98563.44
2022-12-24T15:56:12.387Z,98570.47
2022-12-24T15:58:44.548Z,98577.53
2022-12-24T16:01:13.932Z,98581.91
2022-12-24T16:03:54.794Z,98588.06
2022-12-24T16:06:22.729Z,98589.81
2022-12-24T16:08:50.952Z,98590.72
2022-12-24T16:11:36.977Z,98596.84
2022-12-24T16:14:20.202Z,98582.75
2022-12-24T16:16:49.414Z,98590.69
2022-12-24T16:19:22.723Z,98590.72
2022-12-24T16:21:54.776Z,98588.06
2022-12-24T16:24:25.547Z,98595.09
2022-12-24T16:26:52.715Z,98598.63
2022-12-24T16:29:19.857Z,98603.03
2022-12-24T16:31:58.312Z,98599.47
2022-12-24T16:34:28.102Z,98600.34
2022-12-24T16:36:55.416Z,98605.63
2022-12-24T16:39:30.491Z,98617.06
2022-12-24T16:42:18.276Z,98608.28
2022-12-24T16:44:45.564Z,98611.81
2022-12-24T16:47:25.019Z,98617.97
2022-12-24T16:49:51.871Z,98611.81
2022-12-24T16:52:22.226Z,98627.63
2022-12-24T16:54:49.822Z,98628.50
2022-12-24T16:57:16.714Z,98632.03
2022-12-24T16:59:43.223Z,98625.88
2022-12-24T17:02:15.017Z,98632.00
2022-12-24T17:04:42.249Z,98632.00
2022-12-24T17:07:10.782Z,98632.03
2022-12-24T17:09:37.334Z,98627.63
2022-12-24T17:12:05.602Z,98636.41
2022-12-24T17:14:32.184Z,98638.19
2022-12-24T17:16:58.753Z,98651.34
2022-12-24T17:19:25.343Z,98652.22
2022-12-24T17:21:51.802Z,98654.88
2022-12-24T17:24:18.363Z,98659.22
2022-12-24T17:26:44.942Z,98652.19
2022-12-24T17:29:11.559Z,98654.78
2022-12-24T17:31:39.282Z,98656.56
2022-12-24T17:34:06.441Z,98655.69
2022-12-24T17:36:32.946Z,98649.50
2022-12-24T17:38:59.433Z,98658.28
2022-12-24T17:41:26.028Z,98655.66
2022-12-24T17:43:52.532Z,98665.31
2022-12-24T17:46:22.478Z,98665.31
2022-12-24T17:48:50.316Z,98670.59
2022-12-24T17:51:19.233Z,98673.19
2022-12-24T17:53:45.817Z,98674.06
2022-12-24T17:56:14.239Z,98678.50
2022-12-24T17:58:42.969Z,98686.41
2022-12-24T18:01:19.233Z,98683.72
2022-12-24T18:03:46.941Z,98685.44
2022-12-24T18:06:14.020Z,98678.44
2022-12-24T18:08:41.968Z,98689.00
2022-12-24T18:11:23.695Z,98679.28
2022-12-24T18:13:51.338Z,98688.03
2022-12-24T18:16:25.354Z,98702.97
2022-12-24T18:18:53.051Z,98705.66
2022-12-24T18:21:21.853Z,98700.41
2022-12-24T18:23:50.364Z,98699.53
2022-12-24T18:26:18.729Z,98717.06
2022-12-24T18:28:46.167Z,98720.59
2022-12-24T18:31:18.397Z,98716.16
2022-12-24T18:33:46.338Z,98715.25
2022-12-24T18:36:15.932Z,98716.13
2022-12-24T18:38:42.783Z,98716.06
2022-12-24T18:41:15.805Z,98713.41
2022-12-24T18:43:42.479Z,98710.78
2022-12-24T18:46:11.170Z,98718.66
2022-12-24T18:48:38.327Z,98718.63
2022-12-24T18:51:06.616Z,98725.66
2022-12-24T18:53:33.963Z,98709.91
2022-12-24T18:56:10.647Z,98724.78
2022-12-24T18:58:42.120Z,98728.28
2022-12-24T19:01:17.573Z,98727.41
2022-12-24T19:03:44.533Z,98730.03
2022-12-24T19:06:11.567Z,98730.03
2022-12-24T19:11:26.667Z,98744.09
2022-12-24T19:13:53.450Z,98738.81
2022-12-24T19:16:20.414Z,98739.66
2022-12-24T19:18:47.260Z,98741.41
2022-12-24T19:21:15.647Z,98739.66
2022-12-24T19:23:42.338Z,98741.38
2022-12-24T19:26:10.903Z,98736.97
2022-12-24T19:28:38.009Z,98747.44
2022-12-24T19:31:07.184Z,98742.16
2022-12-24T19:33:43.229Z,98739.56
2022-12-24T19:36:13.319Z,98738.63
2022-12-24T19:38:40.786Z,98742.22
2022-12-24T19:41:21.796Z,98744.84
2022-12-24T19:43:51.415Z,98751.03
2022-12-24T19:46:23.687Z,98744.84
2022-12-24T19:48:52.192Z,98745.72
2022-12-24T19:51:19.715Z,98753.66
2022-12-24T19:53:47.610Z,98753.66
2022-12-24T19:56:16.095Z,98758.03
2022-12-24T19:58:42.788Z,98764.22
2022-12-24T20:01:15.957Z,98768.59
2022-12-24T20:03:43.565Z,98775.63
2022-12-24T20:06:10.458Z,98774.75
2022-12-24T20:08:38.898Z,98770.41
2022-12-24T20:11:07.881Z,98769.53
2022-12-24T20:13:35.240Z,98777.44
2022-12-24T20:16:06.740Z,98779.13
2022-12-24T20:18:33.662Z,98779.09
2022-12-24T20:21:05.698Z,98775.53
2022-12-24T20:23:32.129Z,98772.94
2022-12-24T20:26:04.281Z,98779.91
2022-12-24T20:28:33.346Z,98779.88
2022-12-24T20:30:59.895Z,98786.03
2022-12-24T20:33:26.456Z,98780.69
2022-12-24T20:35:53.268Z,98782.44
2022-12-24T20:38:19.845Z,98788.56
2022-12-24T20:40:47.168Z,98803.56
2022-12-24T20:43:13.652Z,98796.53
2022-12-24T20:45:40.929Z,98799.16
2022-12-24T20:48:07.667Z,98805.25
2022-12-24T20:50:34.157Z,98798.19
2022-12-24T20:53:00.768Z,98790.22
2022-12-24T20:55:27.445Z,98792.84
2022-12-24T20:57:53.945Z,98794.66
2022-12-24T21:00:21.026Z,98797.25
2022-12-24T21:02:47.650Z,98796.44
2022-12-24T21:05:14.351Z,98794.66
2022-12-24T21:07:42.921Z,98798.13
2022-12-24T21:10:11.311Z,98794.59
2022-12-24T21:12:50.016Z,98805.09
2022-12-24T21:15:21.973Z,98794.47
2022-12-24T21:17:48.957Z,98800.59
2022-12-24T21:20:16.691Z,98797.84
2022-12-24T21:22:43.670Z,98797.75
2022-12-24T21:25:11.458Z,98803.97
2022-12-24T21:27:38.470Z,98800.44
2022-12-24T21:30:08.069Z,98801.34
2022-12-24T21:32:35.781Z,98808.28
2022-12-24T21:35:03.137Z,98819.63
2022-12-24T21:37:29.701Z,98821.25
2022-12-24T21:39:56.161Z,98823.91
2022-12-24T21:42:22.680Z,98824.88
2022-12-24T21:44:49.170Z,98822.16
2022-12-24T21:47:15.698Z,98834.38
2022-12-24T21:50:00.373Z,98829.97
2022-12-24T21:52:26.938Z,98827.41
2022-12-24T21:54:53.456Z,98832.75
2022-12-24T21:57:38.517Z,98821.34
2022-12-24T22:00:21.555Z,98832.88
2022-12-24T22:02:57.118Z,98831.16
2022-12-24T22:05:26.101Z,98831.16
2022-12-24T22:08:15.479Z,98831.16
2022-12-24T22:11:00.376Z,98826.69
2022-12-24T22:13:29.831Z,98830.19
2022-12-24T22:15:56.557Z,98824.03
2022-12-24T22:18:26.815Z,98831.94
2022-12-24T22:20:53.350Z,98839.84
2022-12-24T22:23:20.139Z,98839.03
2022-12-24T22:25:47.402Z,98850.34
2022-12-24T22:28:14.354Z,98854.75
2022-12-24T22:30:42.845Z,98857.50
2022-12-24T22:33:09.777Z,98858.47
2022-12-24T22:35:40.465Z,98857.63
2022-12-24T22:38:09.255Z,98850.56
2022-12-24T22:40:38.429Z,98851.47
2022-12-24T22:43:04.898Z,98852.34
2022-12-24T22:45:31.500Z,98845.25
2022-12-24T22:47:58.031Z,98851.34
2022-12-24T22:50:24.542Z,98846.06
2022-12-24T22:52:52.597Z,98846.06
2022-12-24T22:55:19.103Z,98839.91
2022-12-24T22:57:45.581Z,98837.28
2022-12-24T23:00:39.193Z,98838.16
2022-12-24T23:03:06.335Z,98838.16
2022-12-24T23:05:33.056Z,98846.88
2022-12-24T23:07:59.749Z,98853.94
2022-12-24T23:10:28.006Z,98853.94
2022-12-24T23:13:15.057Z,98855.66
2022-12-24T23:15:42.091Z,98848.59
2022-12-24T23:18:09.080Z,98850.28
2022-12-24T23:20:45.269Z,98839.72
2022-12-24T23:23:12.366Z,98848.50
2022-12-24T23:25:38.933Z,98842.28
2022-12-24T23:28:06.100Z,98838.75
2022-12-24T23:30:32.890Z,98831.56
2022-12-24T23:32:59.478Z,98831.50
2022-12-24T23:35:26.040Z,98826.22
2022-12-24T23:37:52.539Z,98824.56
2022-12-24T23:40:19.125Z,98835.13
2022-12-24T23:42:45.584Z,98839.47
2022-12-24T23:45:12.162Z,98837.72
2022-12-24T23:47:38.822Z,98836.00
2022-12-24T23:50:06.198Z,98833.41
2022-12-24T23:52:32.697Z,98835.19
2022-12-24T23:54:59.143Z,98838.69
2022-12-24T23:57:25.644Z,98837.78
2022-12-24T23:59:52.083Z,98832.50
